Chingmei, Taiwan
Current Conditions -  °F | °C
As of 10:30 PM on Friday 28 Nov 2014 (Local Time) from RCSS Reporting Station
Broken Clouds Broken Clouds  
Wind Chill: 75°   Ceiling: 8000
Heat Index: 75°   Visibility: 5mi
Dew Point: 68°   Wind: 9mph
Humidity: 78%   Direction: 100°E
Pressure: 29.97"   Gusts: NA
Location:  25°N, 121.55°E
Report Text: RCSS 281430Z 10008KT 8000 FEW012 BKN080 24/20 Q1015 NOSIGRMK A2998
Loading
Personal Weather Stations






























Interactive Weather Map New forecast layout! Learn more

10-Day Weather Forecast

Advertisements
Track Severe Weather on mobile